sensor_id;sensor_type;location;lat;lon;timestamp;pressure;altitude;pressure_sealevel;temperature;humidity
67377;BME280;54261;46.086;6.588;2023-06-10T00:02:39;92208.63;;;14.14;57.24
67377;BME280;54261;46.086;6.588;2023-06-10T00:07:41;92271.59;;;15.66;55.89
67377;BME280;54261;46.086;6.588;2023-06-10T00:12:43;92278.94;;;16.25;54.67
67377;BME280;54261;46.086;6.588;2023-06-10T00:17:45;92268.22;;;15.93;54.30
67377;BME280;54261;46.086;6.588;2023-06-10T00:22:47;92269.69;;;16.49;52.48
67377;BME280;54261;46.086;6.588;2023-06-10T00:27:50;92243.03;;;15.89;52.55
67377;BME280;54261;46.086;6.588;2023-06-10T00:32:52;92265.78;;;15.48;55.64
67377;BME280;54261;46.086;6.588;2023-06-10T00:37:54;92259.28;;;14.65;56.74
67377;BME280;54261;46.086;6.588;2023-06-10T00:42:56;92258.31;;;16.40;54.36
67377;BME280;54261;46.086;6.588;2023-06-10T00:47:59;92257.97;;;16.88;51.81
67377;BME280;54261;46.086;6.588;2023-06-10T00:53:01;92269.53;;;16.19;52.83
67377;BME280;54261;46.086;6.588;2023-06-10T00:58:04;92264.69;;;15.89;52.41
67377;BME280;54261;46.086;6.588;2023-06-10T01:03:06;92194.13;;;14.51;54.35
67377;BME280;54261;46.086;6.588;2023-06-10T01:08:27;92240.53;;;15.24;57.07
67377;BME280;54261;46.086;6.588;2023-06-10T01:13:30;92265.59;;;15.57;54.95
67377;BME280;54261;46.086;6.588;2023-06-10T01:18:34;92256.34;;;15.06;55.45
67377;BME280;54261;46.086;6.588;2023-06-10T01:23:35;92242.22;;;15.13;55.88
67377;BME280;54261;46.086;6.588;2023-06-10T01:28:48;92270.09;;;16.08;54.78
67377;BME280;54261;46.086;6.588;2023-06-10T01:33:52;92269.25;;;17.17;52.56
67377;BME280;54261;46.086;6.588;2023-06-10T01:38:55;92265.88;;;17.51;49.92
67377;BME280;54261;46.086;6.588;2023-06-10T01:43:57;92275.28;;;17.88;48.62
67377;BME280;54261;46.086;6.588;2023-06-10T01:48:59;92273.34;;;18.19;48.11
67377;BME280;54261;46.086;6.588;2023-06-10T01:54:01;92269.28;;;18.40;46.99
67377;BME280;54261;46.086;6.588;2023-06-10T01:59:03;92267.13;;;18.56;46.84
67377;BME280;54261;46.086;6.588;2023-06-10T02:04:05;92260.66;;;18.30;46.04
67377;BME280;54261;46.086;6.588;2023-06-10T02:09:07;92262.13;;;17.90;45.69
67377;BME280;54261;46.086;6.588;2023-06-10T02:14:09;92255.69;;;18.36;45.79
67377;BME280;54261;46.086;6.588;2023-06-10T02:19:11;92233.78;;;17.87;47.31
67377;BME280;54261;46.086;6.588;2023-06-10T02:24:14;92245.94;;;18.01;46.82
67377;BME280;54261;46.086;6.588;2023-06-10T02:29:16;92265.78;;;18.05;47.25
67377;BME280;54261;46.086;6.588;2023-06-10T02:34:17;92264.44;;;17.91;46.60
67377;BME280;54261;46.086;6.588;2023-06-10T02:39:21;92259.91;;;18.33;45.46
67377;BME280;54261;46.086;6.588;2023-06-10T02:44:24;92190.56;;;17.71;45.96
67377;BME280;54261;46.086;6.588;2023-06-10T02:49:26;92265.50;;;18.14;45.71
67377;BME280;54261;46.086;6.588;2023-06-10T02:54:32;92255.59;;;17.64;47.42
67377;BME280;54261;46.086;6.588;2023-06-10T02:59:35;92268.47;;;17.71;46.36
67377;BME280;54261;46.086;6.588;2023-06-10T03:04:37;92268.66;;;18.19;46.85
67377;BME280;54261;46.086;6.588;2023-06-10T03:09:45;92275.59;;;18.51;46.30
67377;BME280;54261;46.086;6.588;2023-06-10T03:14:48;92280.13;;;18.05;45.70
67377;BME280;54261;46.086;6.588;2023-06-10T03:19:51;92276.38;;;18.52;45.71
67377;BME280;54261;46.086;6.588;2023-06-10T03:24:54;92206.47;;;18.07;46.15
67377;BME280;54261;46.086;6.588;2023-06-10T03:29:58;92277.22;;;18.18;46.13
67377;BME280;54261;46.086;6.588;2023-06-10T03:35:01;92280.59;;;17.81;47.26
67377;BME280;54261;46.086;6.588;2023-06-10T03:40:05;92251.13;;;18.13;46.15
67377;BME280;54261;46.086;6.588;2023-06-10T03:45:09;92276.00;;;17.85;47.07
67377;BME280;54261;46.086;6.588;2023-06-10T03:50:12;92274.38;;;18.45;46.27
67377;BME280;54261;46.086;6.588;2023-06-10T03:55:17;92282.69;;;18.25;46.39
67377;BME280;54261;46.086;6.588;2023-06-10T04:00:20;92277.91;;;18.49;45.78
67377;BME280;54261;46.086;6.588;2023-06-10T04:05:23;92247.63;;;18.47;45.44
67377;BME280;54261;46.086;6.588;2023-06-10T04:10:27;92257.28;;;18.41;44.83
67377;BME280;54261;46.086;6.588;2023-06-10T04:15:29;92241.97;;;17.60;46.60
67377;BME280;54261;46.086;6.588;2023-06-10T04:20:38;92256.53;;;17.75;46.46
67377;BME280;54261;46.086;6.588;2023-06-10T04:25:41;92270.03;;;17.45;47.75
67377;BME280;54261;46.086;6.588;2023-06-10T04:30:43;92274.41;;;17.80;47.54
67377;BME280;54261;46.086;6.588;2023-06-10T04:35:46;92277.47;;;17.78;47.75
67377;BME280;54261;46.086;6.588;2023-06-10T04:40:50;92283.91;;;17.97;47.31
67377;BME280;54261;46.086;6.588;2023-06-10T04:45:54;92286.44;;;18.13;47.57
67377;BME280;54261;46.086;6.588;2023-06-10T04:50:58;92295.50;;;18.25;46.08
67377;BME280;54261;46.086;6.588;2023-06-10T04:56:00;92297.25;;;17.79;46.81
67377;BME280;54261;46.086;6.588;2023-06-10T05:01:02;92296.53;;;18.16;45.88
67377;BME280;54261;46.086;6.588;2023-06-10T05:06:04;92285.53;;;16.47;50.18
67377;BME280;54261;46.086;6.588;2023-06-10T05:11:06;92287.75;;;17.62;48.57
67377;BME280;54261;46.086;6.588;2023-06-10T05:16:08;92297.50;;;17.16;49.05
67377;BME280;54261;46.086;6.588;2023-06-10T05:21:10;92284.22;;;17.07;50.07
67377;BME280;54261;46.086;6.588;2023-06-10T05:26:13;92291.09;;;18.16;48.97
67377;BME280;54261;46.086;6.588;2023-06-10T05:31:15;92287.19;;;17.80;48.13
67377;BME280;54261;46.086;6.588;2023-06-10T05:36:17;92206.06;;;18.05;48.52
67377;BME280;54261;46.086;6.588;2023-06-10T05:41:19;92282.50;;;18.11;47.94
67377;BME280;54261;46.086;6.588;2023-06-10T05:46:21;92283.22;;;16.49;53.45
67377;BME280;54261;46.086;6.588;2023-06-10T05:51:23;92292.34;;;17.07;51.04
67377;BME280;54261;46.086;6.588;2023-06-10T05:56:25;92288.47;;;17.89;49.86
67377;BME280;54261;46.086;6.588;2023-06-10T06:01:27;92288.16;;;17.95;49.79
67377;BME280;54261;46.086;6.588;2023-06-10T06:06:29;92289.09;;;17.48;50.75
67377;BME280;54261;46.086;6.588;2023-06-10T06:11:31;92293.34;;;17.22;52.56
67377;BME280;54261;46.086;6.588;2023-06-10T06:16:33;92286.78;;;15.55;54.89
67377;BME280;54261;46.086;6.588;2023-06-10T06:21:35;92292.28;;;16.80;53.50
67377;BME280;54261;46.086;6.588;2023-06-10T06:26:36;92288.34;;;15.36;56.54
67377;BME280;54261;46.086;6.588;2023-06-10T06:31:38;92288.31;;;15.72;56.01
67377;BME280;54261;46.086;6.588;2023-06-10T06:36:40;92301.69;;;13.92;61.77
67377;BME280;54261;46.086;6.588;2023-06-10T06:41:42;92302.75;;;14.03;61.87
67377;BME280;54261;46.086;6.588;2023-06-10T06:46:44;92304.31;;;11.84;71.21
67377;BME280;54261;46.086;6.588;2023-06-10T06:51:46;92298.75;;;11.89;70.71
67377;BME280;54261;46.086;6.588;2023-06-10T06:56:47;92299.69;;;12.39;69.32
67377;BME280;54261;46.086;6.588;2023-06-10T07:01:49;92308.88;;;13.22;66.37
67377;BME280;54261;46.086;6.588;2023-06-10T07:06:51;92314.41;;;13.13;67.44
67377;BME280;54261;46.086;6.588;2023-06-10T07:11:53;92263.72;;;12.44;68.17
67377;BME280;54261;46.086;6.588;2023-06-10T07:16:55;92327.34;;;13.73;66.15
67377;BME280;54261;46.086;6.588;2023-06-10T07:21:57;92289.81;;;12.90;67.52
67377;BME280;54261;46.086;6.588;2023-06-10T07:26:59;92334.03;;;15.09;62.45
67377;BME280;54261;46.086;6.588;2023-06-10T07:32:02;92328.75;;;13.95;65.17
67377;BME280;54261;46.086;6.588;2023-06-10T07:37:04;92306.13;;;14.57;62.30
67377;BME280;54261;46.086;6.588;2023-06-10T07:42:07;92319.00;;;14.64;60.28
67377;BME280;54261;46.086;6.588;2023-06-10T07:47:08;92323.25;;;13.26;65.87
67377;BME280;54261;46.086;6.588;2023-06-10T07:52:10;92320.88;;;14.47;61.01
67377;BME280;54261;46.086;6.588;2023-06-10T07:57:12;92330.50;;;13.75;64.69
67377;BME280;54261;46.086;6.588;2023-06-10T08:02:14;92332.63;;;15.32;61.87
67377;BME280;54261;46.086;6.588;2023-06-10T08:07:16;92313.34;;;16.05;57.77
67377;BME280;54261;46.086;6.588;2023-06-10T08:12:19;92315.53;;;14.35;63.98
67377;BME280;54261;46.086;6.588;2023-06-10T08:17:22;92326.91;;;12.59;67.84
67377;BME280;54261;46.086;6.588;2023-06-10T08:22:23;92318.41;;;12.82;68.86
67377;BME280;54261;46.086;6.588;2023-06-10T08:27:25;92320.34;;;14.86;64.84
67377;BME280;54261;46.086;6.588;2023-06-10T08:32:27;92297.53;;;16.07;58.01
67377;BME280;54261;46.086;6.588;2023-06-10T08:37:29;92314.03;;;16.84;56.27
67377;BME280;54261;46.086;6.588;2023-06-10T08:42:39;92323.19;;;18.38;51.71
67377;BME280;54261;46.086;6.588;2023-06-10T08:47:45;92306.56;;;14.75;57.40
67377;BME280;54261;46.086;6.588;2023-06-10T08:52:53;92305.91;;;13.64;63.66
67377;BME280;54261;46.086;6.588;2023-06-10T08:57:56;92298.03;;;16.13;57.27
67377;BME280;54261;46.086;6.588;2023-06-10T09:02:58;92318.22;;;16.78;55.64
67377;BME280;54261;46.086;6.588;2023-06-10T09:08:06;92321.47;;;15.17;64.66
67377;BME280;54261;46.086;6.588;2023-06-10T09:13:08;92319.59;;;17.42;56.83
67377;BME280;54261;46.086;6.588;2023-06-10T09:18:10;92315.34;;;15.20;59.39
67377;BME280;54261;46.086;6.588;2023-06-10T09:23:15;92320.75;;;14.56;61.76
67377;BME280;54261;46.086;6.588;2023-06-10T09:28:16;92318.91;;;15.76;61.80
67377;BME280;54261;46.086;6.588;2023-06-10T09:33:28;92301.75;;;14.52;61.45
67377;BME280;54261;46.086;6.588;2023-06-10T09:38:36;92314.25;;;14.73;62.71
67377;BME280;54261;46.086;6.588;2023-06-10T09:43:43;92317.78;;;13.88;61.86
67377;BME280;54261;46.086;6.588;2023-06-10T09:48:47;92318.88;;;13.99;61.35
67377;BME280;54261;46.086;6.588;2023-06-10T09:53:51;92288.56;;;13.24;62.58
67377;BME280;54261;46.086;6.588;2023-06-10T09:58:53;92301.94;;;12.96;59.58
67377;BME280;54261;46.086;6.588;2023-06-10T10:03:56;92296.16;;;13.35;58.86
67377;BME280;54261;46.086;6.588;2023-06-10T10:08:58;92284.97;;;13.86;59.23
67377;BME280;54261;46.086;6.588;2023-06-10T10:14:03;92290.22;;;13.95;60.12
67377;BME280;54261;46.086;6.588;2023-06-10T10:24:31;92310.59;;;16.87;52.16
67377;BME280;54261;46.086;6.588;2023-06-10T10:29:46;92312.34;;;19.21;46.14
67377;BME280;54261;46.086;6.588;2023-06-10T10:39:55;92310.72;;;15.37;56.70
67377;BME280;54261;46.086;6.588;2023-06-10T10:44:58;92330.94;;;18.73;47.75
67377;BME280;54261;46.086;6.588;2023-06-10T10:50:00;92303.84;;;18.81;47.23
67377;BME280;54261;46.086;6.588;2023-06-10T10:55:12;92323.41;;;20.09;45.72
67377;BME280;54261;46.086;6.588;2023-06-10T11:00:27;92325.72;;;20.03;44.24
67377;BME280;54261;46.086;6.588;2023-06-10T11:10:40;92334.25;;;21.85;42.92
67377;BME280;54261;46.086;6.588;2023-06-10T11:15:47;92329.13;;;21.98;41.12
67377;BME280;54261;46.086;6.588;2023-06-10T11:25:51;92320.44;;;19.58;44.50
67377;BME280;54261;46.086;6.588;2023-06-10T11:30:59;92259.44;;;21.10;44.22
67377;BME280;54261;46.086;6.588;2023-06-10T11:36:01;92333.66;;;19.11;47.28
67377;BME280;54261;46.086;6.588;2023-06-10T11:41:08;92337.41;;;21.62;43.29
67377;BME280;54261;46.086;6.588;2023-06-10T11:46:14;92334.94;;;22.18;41.21
67377;BME280;54261;46.086;6.588;2023-06-10T11:51:16;92307.38;;;21.51;42.15
67377;BME280;54261;46.086;6.588;2023-06-10T11:56:25;92314.41;;;20.01;45.91
67377;BME280;54261;46.086;6.588;2023-06-10T12:01:31;92312.44;;;17.30;50.73
67377;BME280;54261;46.086;6.588;2023-06-10T12:11:49;92306.59;;;17.82;50.41
67377;BME280;54261;46.086;6.588;2023-06-10T12:16:51;92284.28;;;18.68;50.17
67377;BME280;54261;46.086;6.588;2023-06-10T12:21:53;92299.94;;;20.97;43.53
67377;BME280;54261;46.086;6.588;2023-06-10T12:26:55;92294.38;;;19.57;44.23
67377;BME280;54261;46.086;6.588;2023-06-10T12:32:01;92283.56;;;18.74;46.28
67377;BME280;54261;46.086;6.588;2023-06-10T12:37:09;92281.88;;;18.55;47.04
67377;BME280;54261;46.086;6.588;2023-06-10T12:42:14;92275.50;;;18.82;46.68
67377;BME280;54261;46.086;6.588;2023-06-10T12:47:16;92262.47;;;19.02;46.69
67377;BME280;54261;46.086;6.588;2023-06-10T12:52:18;92247.69;;;16.51;51.55
67377;BME280;54261;46.086;6.588;2023-06-10T12:57:23;92272.38;;;18.38;48.58
67377;BME280;54261;46.086;6.588;2023-06-10T13:02:25;92261.38;;;18.65;47.26
67377;BME280;54261;46.086;6.588;2023-06-10T13:07:27;92245.25;;;18.83;47.88
67377;BME280;54261;46.086;6.588;2023-06-10T13:12:29;92253.94;;;19.56;43.18
67377;BME280;54261;46.086;6.588;2023-06-10T13:17:47;92244.97;;;20.62;42.11
67377;BME280;54261;46.086;6.588;2023-06-10T13:22:51;92247.56;;;20.08;42.74
67377;BME280;54261;46.086;6.588;2023-06-10T13:27:53;92242.69;;;21.00;40.00
67377;BME280;54261;46.086;6.588;2023-06-10T13:32:56;92237.47;;;23.66;37.67
67377;BME280;54261;46.086;6.588;2023-06-10T13:37:57;92237.38;;;19.86;39.95
67377;BME280;54261;46.086;6.588;2023-06-10T13:42:59;92241.88;;;23.57;36.96
67377;BME280;54261;46.086;6.588;2023-06-10T13:48:02;92234.78;;;23.21;38.08
67377;BME280;54261;46.086;6.588;2023-06-10T13:53:06;92248.78;;;24.07;35.41
67377;BME280;54261;46.086;6.588;2023-06-10T13:58:08;92232.75;;;22.12;38.33
67377;BME280;54261;46.086;6.588;2023-06-10T14:03:10;92241.22;;;22.36;37.60
67377;BME280;54261;46.086;6.588;2023-06-10T14:08:14;92253.41;;;22.13;38.98
67377;BME280;54261;46.086;6.588;2023-06-10T14:13:17;92238.94;;;22.91;36.31
67377;BME280;54261;46.086;6.588;2023-06-10T14:18:19;92247.25;;;22.73;37.23
67377;BME280;54261;46.086;6.588;2023-06-10T14:23:21;92210.16;;;23.24;37.33
67377;BME280;54261;46.086;6.588;2023-06-10T14:28:23;92201.41;;;23.37;35.78
67377;BME280;54261;46.086;6.588;2023-06-10T14:33:25;92235.94;;;23.23;35.88
67377;BME280;54261;46.086;6.588;2023-06-10T14:38:27;92230.19;;;21.28;38.56
67377;BME280;54261;46.086;6.588;2023-06-10T14:43:29;92242.00;;;22.33;37.50
67377;BME280;54261;46.086;6.588;2023-06-10T14:48:31;92247.56;;;22.00;38.18
67377;BME280;54261;46.086;6.588;2023-06-10T14:53:33;92199.81;;;20.72;40.06
67377;BME280;54261;46.086;6.588;2023-06-10T14:58:34;92239.91;;;21.66;40.08
67377;BME280;54261;46.086;6.588;2023-06-10T15:03:36;92207.44;;;22.72;38.78
67377;BME280;54261;46.086;6.588;2023-06-10T15:08:38;92251.94;;;24.05;35.74
67377;BME280;54261;46.086;6.588;2023-06-10T15:13:40;92241.63;;;24.17;34.54
67377;BME280;54261;46.086;6.588;2023-06-10T15:18:42;92232.16;;;23.90;35.30
67377;BME280;54261;46.086;6.588;2023-06-10T15:23:44;92249.13;;;22.16;37.23
67377;BME280;54261;46.086;6.588;2023-06-10T15:28:46;92239.47;;;22.67;37.34
67377;BME280;54261;46.086;6.588;2023-06-10T15:33:48;92251.97;;;23.25;37.48
67377;BME280;54261;46.086;6.588;2023-06-10T15:38:50;92241.94;;;23.04;37.75
67377;BME280;54261;46.086;6.588;2023-06-10T15:43:55;92237.97;;;23.58;35.11
67377;BME280;54261;46.086;6.588;2023-06-10T15:48:57;92224.09;;;23.37;36.27
67377;BME280;54261;46.086;6.588;2023-06-10T15:53:59;92218.63;;;23.34;36.74
67377;BME280;54261;46.086;6.588;2023-06-10T15:59:01;92232.97;;;24.22;37.71
67377;BME280;54261;46.086;6.588;2023-06-10T16:04:03;92225.00;;;24.31;37.14
67377;BME280;54261;46.086;6.588;2023-06-10T16:09:05;92163.94;;;24.58;36.99
67377;BME280;54261;46.086;6.588;2023-06-10T16:14:07;92187.47;;;24.83;37.61
67377;BME280;54261;46.086;6.588;2023-06-10T16:19:10;92193.63;;;24.05;38.17
67377;BME280;54261;46.086;6.588;2023-06-10T16:24:12;92159.72;;;24.22;36.33
67377;BME280;54261;46.086;6.588;2023-06-10T16:29:15;92187.69;;;24.69;35.73
67377;BME280;54261;46.086;6.588;2023-06-10T16:34:17;92218.50;;;25.52;34.62
67377;BME280;54261;46.086;6.588;2023-06-10T16:39:19;92217.34;;;25.93;33.58
67377;BME280;54261;46.086;6.588;2023-06-10T16:44:20;92216.06;;;26.75;34.22
67377;BME280;54261;46.086;6.588;2023-06-10T16:49:22;92204.13;;;26.82;31.77
67377;BME280;54261;46.086;6.588;2023-06-10T16:54:24;92217.66;;;27.26;31.92
67377;BME280;54261;46.086;6.588;2023-06-10T16:59:26;92232.69;;;27.84;31.27
67377;BME280;54261;46.086;6.588;2023-06-10T17:04:28;92137.50;;;26.21;32.46
67377;BME280;54261;46.086;6.588;2023-06-10T17:09:30;92231.00;;;25.97;33.05
67377;BME280;54261;46.086;6.588;2023-06-10T17:14:32;92233.53;;;25.67;34.40
67377;BME280;54261;46.086;6.588;2023-06-10T17:19:34;92225.28;;;25.67;33.86
67377;BME280;54261;46.086;6.588;2023-06-10T17:24:36;92235.91;;;25.41;33.84
67377;BME280;54261;46.086;6.588;2023-06-10T17:29:38;92232.72;;;25.46;35.44
67377;BME280;54261;46.086;6.588;2023-06-10T17:34:40;92202.34;;;25.10;36.06
67377;BME280;54261;46.086;6.588;2023-06-10T17:39:42;92218.53;;;25.72;34.90
67377;BME280;54261;46.086;6.588;2023-06-10T17:44:44;92237.50;;;26.27;34.52
67377;BME280;54261;46.086;6.588;2023-06-10T17:49:46;92247.91;;;26.56;34.27
67377;BME280;54261;46.086;6.588;2023-06-10T17:54:49;92217.41;;;26.30;34.13
67377;BME280;54261;46.086;6.588;2023-06-10T17:59:51;92233.97;;;26.46;34.01
67377;BME280;54261;46.086;6.588;2023-06-10T18:04:53;92243.03;;;26.43;33.93
67377;BME280;54261;46.086;6.588;2023-06-10T18:09:55;92251.13;;;26.54;33.98
67377;BME280;54261;46.086;6.588;2023-06-10T18:14:57;92270.72;;;26.36;34.49
67377;BME280;54261;46.086;6.588;2023-06-10T18:19:59;92254.38;;;25.17;36.07
67377;BME280;54261;46.086;6.588;2023-06-10T18:25:01;92267.69;;;25.66;36.05
67377;BME280;54261;46.086;6.588;2023-06-10T18:30:07;92266.59;;;25.84;35.27
67377;BME280;54261;46.086;6.588;2023-06-10T18:35:09;92253.72;;;25.33;35.90
67377;BME280;54261;46.086;6.588;2023-06-10T18:40:12;92277.00;;;25.48;35.52
67377;BME280;54261;46.086;6.588;2023-06-10T18:45:14;92264.28;;;25.11;35.49
67377;BME280;54261;46.086;6.588;2023-06-10T18:50:16;92278.06;;;24.14;36.92
67377;BME280;54261;46.086;6.588;2023-06-10T18:55:18;92272.75;;;23.57;37.69
67377;BME280;54261;46.086;6.588;2023-06-10T19:00:20;92289.72;;;23.45;37.97
67377;BME280;54261;46.086;6.588;2023-06-10T19:05:22;92289.44;;;23.74;37.57
67377;BME280;54261;46.086;6.588;2023-06-10T19:10:25;92295.91;;;23.00;38.68
67377;BME280;54261;46.086;6.588;2023-06-10T19:15:27;92304.94;;;22.93;38.49
67377;BME280;54261;46.086;6.588;2023-06-10T19:20:29;92306.19;;;21.66;41.09
67377;BME280;54261;46.086;6.588;2023-06-10T19:25:31;92284.75;;;20.92;42.36
67377;BME280;54261;46.086;6.588;2023-06-10T19:30:33;92302.16;;;20.44;44.35
67377;BME280;54261;46.086;6.588;2023-06-10T19:35:35;92308.38;;;20.34;43.63
67377;BME280;54261;46.086;6.588;2023-06-10T19:40:38;92309.28;;;19.26;45.55
67377;BME280;54261;46.086;6.588;2023-06-10T19:45:40;92317.94;;;18.90;45.58
67377;BME280;54261;46.086;6.588;2023-06-10T19:50:42;92305.78;;;19.85;44.33
67377;BME280;54261;46.086;6.588;2023-06-10T19:55:43;92284.16;;;19.43;43.75
67377;BME280;54261;46.086;6.588;2023-06-10T20:00:45;92340.97;;;18.31;46.72
67377;BME280;54261;46.086;6.588;2023-06-10T20:05:47;92317.78;;;19.21;44.67
67377;BME280;54261;46.086;6.588;2023-06-10T20:10:49;92325.88;;;18.72;45.31
67377;BME280;54261;46.086;6.588;2023-06-10T20:15:51;92330.13;;;18.31;46.80
67377;BME280;54261;46.086;6.588;2023-06-10T20:20:53;92352.03;;;18.50;46.63
67377;BME280;54261;46.086;6.588;2023-06-10T20:25:55;92355.03;;;19.16;45.00
67377;BME280;54261;46.086;6.588;2023-06-10T20:31:00;92344.78;;;18.27;46.93
67377;BME280;54261;46.086;6.588;2023-06-10T20:36:02;92333.91;;;18.61;46.67
67377;BME280;54261;46.086;6.588;2023-06-10T20:41:04;92355.00;;;18.37;45.88
67377;BME280;54261;46.086;6.588;2023-06-10T20:46:07;92355.91;;;19.28;45.39
67377;BME280;54261;46.086;6.588;2023-06-10T20:51:09;92352.69;;;19.15;45.25
67377;BME280;54261;46.086;6.588;2023-06-10T20:56:11;92310.19;;;17.89;46.95
67377;BME280;54261;46.086;6.588;2023-06-10T21:01:13;92335.09;;;18.63;46.10
67377;BME280;54261;46.086;6.588;2023-06-10T21:06:15;92336.91;;;18.52;46.00
67377;BME280;54261;46.086;6.588;2023-06-10T21:11:17;92335.59;;;19.14;45.41
67377;BME280;54261;46.086;6.588;2023-06-10T21:16:19;92349.75;;;18.21;46.19
67377;BME280;54261;46.086;6.588;2023-06-10T21:21:22;92355.56;;;18.19;46.70
67377;BME280;54261;46.086;6.588;2023-06-10T21:26:24;92363.81;;;18.27;45.96
67377;BME280;54261;46.086;6.588;2023-06-10T21:31:26;92371.66;;;17.78;47.50
67377;BME280;54261;46.086;6.588;2023-06-10T21:36:28;92369.34;;;18.07;46.61
67377;BME280;54261;46.086;6.588;2023-06-10T21:41:30;92369.94;;;17.93;47.75
67377;BME280;54261;46.086;6.588;2023-06-10T21:46:32;92365.69;;;18.23;47.02
67377;BME280;54261;46.086;6.588;2023-06-10T21:51:35;92366.25;;;18.09;46.53
67377;BME280;54261;46.086;6.588;2023-06-10T21:56:36;92367.53;;;18.15;46.99
67377;BME280;54261;46.086;6.588;2023-06-10T22:01:38;92369.75;;;18.74;46.27
67377;BME280;54261;46.086;6.588;2023-06-10T22:06:41;92364.41;;;17.86;46.79
67377;BME280;54261;46.086;6.588;2023-06-10T22:11:43;92359.41;;;17.61;47.44
67377;BME280;54261;46.086;6.588;2023-06-10T22:16:45;92359.13;;;18.24;47.17
67377;BME280;54261;46.086;6.588;2023-06-10T22:21:47;92355.00;;;18.37;45.32
67377;BME280;54261;46.086;6.588;2023-06-10T22:26:49;92357.63;;;18.64;45.35
67377;BME280;54261;46.086;6.588;2023-06-10T22:31:55;92354.09;;;16.32;49.64
67377;BME280;54261;46.086;6.588;2023-06-10T22:36:57;92350.03;;;15.86;51.47
67377;BME280;54261;46.086;6.588;2023-06-10T22:41:59;92345.31;;;17.01;49.42
67377;BME280;54261;46.086;6.588;2023-06-10T22:47:01;92350.06;;;17.08;49.24
67377;BME280;54261;46.086;6.588;2023-06-10T22:52:03;92345.91;;;18.22;45.97
67377;BME280;54261;46.086;6.588;2023-06-10T22:57:06;92322.41;;;18.06;45.40
67377;BME280;54261;46.086;6.588;2023-06-10T23:02:08;92339.44;;;18.03;45.30
67377;BME280;54261;46.086;6.588;2023-06-10T23:07:10;92354.41;;;17.90;45.47
67377;BME280;54261;46.086;6.588;2023-06-10T23:12:16;92327.16;;;17.56;46.75
67377;BME280;54261;46.086;6.588;2023-06-10T23:17:17;92318.38;;;17.39;47.27
67377;BME280;54261;46.086;6.588;2023-06-10T23:22:19;92329.34;;;18.04;46.43
67377;BME280;54261;46.086;6.588;2023-06-10T23:27:21;92342.84;;;17.97;46.20
67377;BME280;54261;46.086;6.588;2023-06-10T23:32:23;92340.06;;;18.54;45.95
67377;BME280;54261;46.086;6.588;2023-06-10T23:37:25;92319.75;;;18.10;45.67
67377;BME280;54261;46.086;6.588;2023-06-10T23:42:29;92354.88;;;18.26;46.36
67377;BME280;54261;46.086;6.588;2023-06-10T23:47:31;92352.19;;;17.72;46.71
67377;BME280;54261;46.086;6.588;2023-06-10T23:52:33;92348.06;;;18.77;45.66
67377;BME280;54261;46.086;6.588;2023-06-10T23:57:35;92245.44;;;17.91;45.43
